createdAt,value
2022-09-12T00:02:17.834Z,13.25
2022-09-12T00:04:44.475Z,13.15
2022-09-12T00:07:11.131Z,13.26
2022-09-12T00:09:38.084Z,13.22
2022-09-12T00:12:05.344Z,13.22
2022-09-12T00:14:32.073Z,13.28
2022-09-12T00:16:59.601Z,13.28
2022-09-12T00:19:28.035Z,13.25
2022-09-12T00:21:54.874Z,13.18
2022-09-12T00:24:22.415Z,13.22
2022-09-12T00:26:49.447Z,13.21
2022-09-12T00:29:18.350Z,13.25
2022-09-12T00:31:45.571Z,13.22
2022-09-12T00:34:12.600Z,13.26
2022-09-12T00:36:40.120Z,13.24
2022-09-12T00:39:08.607Z,13.03
2022-09-12T00:41:39.351Z,13.10
2022-09-12T00:44:12.168Z,13.26
2022-09-12T00:46:46.979Z,13.23
2022-09-12T00:49:19.624Z,13.25
2022-09-12T00:51:52.640Z,13.16
2022-09-12T00:54:25.532Z,13.16
2022-09-12T00:56:55.882Z,13.09
2022-09-12T00:59:29.504Z,12.94
2022-09-12T01:01:56.602Z,13.26
2022-09-12T01:04:25.817Z,13.14
2022-09-12T01:06:53.629Z,13.23
2022-09-12T01:09:22.878Z,13.06
2022-09-12T01:11:51.742Z,13.08
2022-09-12T01:14:19.836Z,13.14
2022-09-12T01:16:48.732Z,13.12
2022-09-12T01:19:39.661Z,13.21
2022-09-12T01:22:09.373Z,13.18
2022-09-12T01:25:00.365Z,13.05
2022-09-12T01:27:51.176Z,12.90
2022-09-12T01:30:39.443Z,13.16
2022-09-12T01:33:09.029Z,13.14
2022-09-12T01:35:56.959Z,12.80
2022-09-12T01:38:59.445Z,13.04
2022-09-12T01:42:01.247Z,13.02
2022-09-12T01:44:52.874Z,12.89
2022-09-12T01:47:27.666Z,12.82
2022-09-12T01:50:06.931Z,12.90
2022-09-12T01:52:42.915Z,12.82
2022-09-12T01:55:33.811Z,12.87
2022-09-12T01:58:11.912Z,12.75
2022-09-12T02:00:45.970Z,12.81
2022-09-12T02:03:19.292Z,12.79
2022-09-12T02:05:56.239Z,12.65
2022-09-12T02:08:27.856Z,12.61
2022-09-12T02:11:11.279Z,12.50
2022-09-12T02:13:59.143Z,12.60
2022-09-12T02:16:32.086Z,12.66
2022-09-12T02:19:07.584Z,12.61
2022-09-12T02:21:37.332Z,12.70
2022-09-12T02:24:08.297Z,12.57
2022-09-12T02:26:40.021Z,12.60
2022-09-12T02:29:06.709Z,12.46
2022-09-12T02:31:47.332Z,12.63
2022-09-12T02:34:39.892Z,12.62
2022-09-12T02:37:29.584Z,12.63
2022-09-12T02:39:57.862Z,12.52
2022-09-12T02:42:24.975Z,12.51
2022-09-12T02:44:54.493Z,12.63
2022-09-12T02:47:34.317Z,12.56
2022-09-12T02:50:01.496Z,12.58
2022-09-12T02:52:29.281Z,12.36
2022-09-12T02:54:58.199Z,12.38
2022-09-12T02:57:25.224Z,12.51
2022-09-12T02:59:55.737Z,12.56
2022-09-12T03:02:34.516Z,12.52
2022-09-12T03:05:19.004Z,12.55
2022-09-12T03:07:51.648Z,12.53
2022-09-12T03:10:34.723Z,12.42
2022-09-12T03:13:18.679Z,12.43
2022-09-12T03:15:48.407Z,12.43
2022-09-12T03:18:29.428Z,12.37
2022-09-12T03:21:12.177Z,12.48
2022-09-12T03:23:47.497Z,12.44
2022-09-12T03:26:20.756Z,12.41
2022-09-12T03:28:48.877Z,12.37
2022-09-12T03:31:18.547Z,12.43
2022-09-12T03:33:45.649Z,12.34
2022-09-12T03:36:26.767Z,12.35
2022-09-12T03:38:53.739Z,12.47
2022-09-12T03:41:20.467Z,12.31
2022-09-12T03:43:47.675Z,12.46
2022-09-12T03:46:14.648Z,12.31
2022-09-12T03:48:41.821Z,12.43
2022-09-12T03:51:10.865Z,12.34
2022-09-12T03:53:37.500Z,12.43
2022-09-12T03:56:09.959Z,12.42
2022-09-12T03:58:37.379Z,12.35
2022-09-12T04:01:15.977Z,12.30
2022-09-12T04:03:44.319Z,12.44
2022-09-12T04:06:13.164Z,12.35
2022-09-12T04:08:40.585Z,12.37
2022-09-12T04:11:13.112Z,12.22
2022-09-12T04:13:41.386Z,12.30
2022-09-12T04:16:08.912Z,12.20
2022-09-12T04:18:36.579Z,11.73
2022-09-12T04:21:12.035Z,12.06
2022-09-12T04:23:38.819Z,11.96
2022-09-12T04:26:06.579Z,11.96
2022-09-12T04:28:35.059Z,12.09
2022-09-12T04:31:07.740Z,11.93
2022-09-12T04:33:35.867Z,11.99
2022-09-12T04:36:07.420Z,11.89
2022-09-12T04:38:36.032Z,12.09
2022-09-12T04:41:16.424Z,12.10
2022-09-12T04:43:44.060Z,11.96
2022-09-12T04:46:12.208Z,11.94
2022-09-12T04:48:39.405Z,12.24
2022-09-12T04:51:09.065Z,12.28
2022-09-12T04:53:37.016Z,12.16
2022-09-12T04:56:06.959Z,12.23
2022-09-12T04:58:34.014Z,12.40
2022-09-12T05:01:21.496Z,12.41
2022-09-12T05:03:49.685Z,12.27
2022-09-12T05:06:22.739Z,12.44
2022-09-12T05:08:50.018Z,12.48
2022-09-12T05:11:24.049Z,12.61
2022-09-12T05:13:52.055Z,12.48
2022-09-12T05:16:19.988Z,12.57
2022-09-12T05:18:47.328Z,12.66
2022-09-12T05:21:18.232Z,12.83
2022-09-12T05:23:45.395Z,12.91
2022-09-12T05:26:16.317Z,12.73
2022-09-12T05:28:43.834Z,13.07
2022-09-12T05:31:14.823Z,13.14
2022-09-12T05:33:43.623Z,13.15
2022-09-12T05:36:13.269Z,13.28
2022-09-12T05:38:40.510Z,13.34
2022-09-12T05:41:17.512Z,13.45
2022-09-12T05:43:46.589Z,13.49
2022-09-12T05:46:15.780Z,13.57
2022-09-12T05:48:45.102Z,13.55
2022-09-12T05:51:20.325Z,13.73
2022-09-12T05:53:53.048Z,13.60
2022-09-12T05:56:23.798Z,13.71
2022-09-12T05:58:59.179Z,14.04
2022-09-12T06:01:27.363Z,14.01
2022-09-12T06:03:56.023Z,14.10
2022-09-12T06:06:25.048Z,14.26
2022-09-12T06:08:54.725Z,14.28
2022-09-12T06:11:24.000Z,14.17
2022-09-12T06:13:51.153Z,14.30
2022-09-12T06:16:20.346Z,14.35
2022-09-12T06:18:53.889Z,14.56
2022-09-12T06:21:21.801Z,14.66
2022-09-12T06:23:49.383Z,14.78
2022-09-12T06:26:18.009Z,14.87
2022-09-12T06:28:45.409Z,14.98
2022-09-12T06:31:20.597Z,14.94
2022-09-12T06:33:50.265Z,15.18
2022-09-12T06:36:21.427Z,15.21
2022-09-12T06:38:51.313Z,15.33
2022-09-12T06:41:17.814Z,15.41
2022-09-12T06:43:44.456Z,15.54
2022-09-12T06:46:12.338Z,15.57
2022-09-12T06:48:41.934Z,15.54
2022-09-12T06:51:16.460Z,15.84
2022-09-12T06:53:44.545Z,15.92
2022-09-12T06:56:19.612Z,16.07
2022-09-12T06:58:48.033Z,16.18
2022-09-12T07:01:17.895Z,16.16
2022-09-12T07:03:48.751Z,16.21
2022-09-12T07:06:17.680Z,16.16
2022-09-12T07:08:44.769Z,16.28
2022-09-12T07:11:20.211Z,16.06
2022-09-12T07:13:52.189Z,16.26
2022-09-12T07:16:20.087Z,16.19
2022-09-12T07:18:59.079Z,16.51
2022-09-12T07:21:26.017Z,16.45
2022-09-12T07:23:55.296Z,16.62
2022-09-12T07:26:22.120Z,16.01
2022-09-12T07:29:03.929Z,16.54
2022-09-12T07:31:42.864Z,16.57
2022-09-12T07:34:09.868Z,16.59
2022-09-12T07:36:37.292Z,16.53
2022-09-12T07:39:04.136Z,16.65
2022-09-12T07:41:33.955Z,16.75
2022-09-12T07:44:01.887Z,16.90
2022-09-12T07:46:30.007Z,16.94
2022-09-12T07:48:58.297Z,16.94
2022-09-12T07:51:27.810Z,17.06
2022-09-12T07:53:54.967Z,17.31
2022-09-12T07:56:23.283Z,17.31
2022-09-12T07:58:53.056Z,17.35
2022-09-12T08:01:23.339Z,17.51
2022-09-12T08:03:54.684Z,17.61
2022-09-12T08:06:24.203Z,17.69
2022-09-12T08:08:52.819Z,17.71
2022-09-12T08:11:21.130Z,17.62
2022-09-12T08:13:52.935Z,17.57
2022-09-12T08:16:22.547Z,17.91
2022-09-12T08:18:49.765Z,17.81
2022-09-12T08:21:18.117Z,17.67
2022-09-12T08:23:45.286Z,18.02
2022-09-12T08:26:12.809Z,18.13
2022-09-12T08:28:43.443Z,17.90
2022-09-12T08:31:16.085Z,17.85
2022-09-12T08:33:43.455Z,17.90
2022-09-12T08:36:15.025Z,18.19
2022-09-12T08:38:44.307Z,18.29
2022-09-12T08:41:30.538Z,18.62
2022-09-12T08:44:24.817Z,18.64
2022-09-12T08:47:13.516Z,18.88
2022-09-12T08:49:47.407Z,18.92
2022-09-12T08:52:52.795Z,19.12
2022-09-12T08:55:31.577Z,19.13
2022-09-12T08:58:05.833Z,19.17
2022-09-12T09:00:42.351Z,19.45
2022-09-12T09:03:30.137Z,19.19
2022-09-12T09:06:02.866Z,19.19
2022-09-12T09:09:06.807Z,19.37
2022-09-12T09:11:42.609Z,19.46
2022-09-12T09:14:50.225Z,19.54
2022-09-12T09:17:41.617Z,19.34
2022-09-12T09:20:17.577Z,19.26
2022-09-12T09:22:53.533Z,19.42
2022-09-12T09:25:48.968Z,19.71
2022-09-12T09:28:26.678Z,19.95
2022-09-12T09:30:53.905Z,19.88
2022-09-12T09:33:23.484Z,20.09
2022-09-12T09:36:05.753Z,20.14
2022-09-12T09:38:51.545Z,20.24
2022-09-12T09:41:18.766Z,20.63
2022-09-12T09:43:45.506Z,20.64
2022-09-12T09:46:14.192Z,20.43
2022-09-12T09:48:45.351Z,20.31
2022-09-12T09:51:13.821Z,20.46
2022-09-12T09:53:53.148Z,20.45
2022-09-12T09:59:33.752Z,20.90
2022-09-12T10:02:24.218Z,20.70
2022-09-12T10:04:57.215Z,20.48
2022-09-12T10:07:26.708Z,20.38
2022-09-12T10:10:13.180Z,20.95
2022-09-12T10:12:39.956Z,21.14
2022-09-12T10:15:39.113Z,21.19
2022-09-12T10:18:13.323Z,20.78
2022-09-12T10:20:44.304Z,20.92
2022-09-12T10:23:29.649Z,21.14
2022-09-12T10:26:01.858Z,21.02
2022-09-12T10:28:37.435Z,21.06
2022-09-12T10:31:05.842Z,21.02
2022-09-12T10:33:41.872Z,21.25
2022-09-12T10:36:09.139Z,21.11
2022-09-12T10:38:36.458Z,21.09
2022-09-12T10:41:13.137Z,21.26
2022-09-12T10:43:46.303Z,20.99
2022-09-12T10:46:19.054Z,21.27
2022-09-12T10:48:47.875Z,21.13
2022-09-12T10:51:29.848Z,21.31
2022-09-12T10:54:09.528Z,21.79
2022-09-12T10:56:38.999Z,21.36
2022-09-12T10:59:50.976Z,21.39
2022-09-12T11:02:43.620Z,21.89
2022-09-12T11:05:42.834Z,21.90
2022-09-12T11:08:32.968Z,21.91
2022-09-12T11:11:45.624Z,22.20
2022-09-12T11:14:35.801Z,21.76
2022-09-12T11:17:14.979Z,21.77
2022-09-12T11:20:09.115Z,21.53
2022-09-12T11:23:00.103Z,21.27
2022-09-12T11:25:38.848Z,21.45
2022-09-12T11:28:34.444Z,21.94
2022-09-12T11:31:12.911Z,22.09
2022-09-12T11:33:44.508Z,22.06
2022-09-12T11:36:36.989Z,21.87
2022-09-12T11:39:14.603Z,21.87
2022-09-12T11:41:57.506Z,22.06
2022-09-12T11:44:40.256Z,22.20
2022-09-12T11:47:14.570Z,22.29
2022-09-12T11:49:49.904Z,22.14
2022-09-12T11:52:20.663Z,21.80
2022-09-12T11:55:03.791Z,21.57
2022-09-12T11:57:52.914Z,21.33
2022-09-12T12:00:20.725Z,21.06
2022-09-12T12:02:59.016Z,22.07
2022-09-12T12:05:31.731Z,22.10
2022-09-12T12:08:01.925Z,21.88
2022-09-12T12:10:48.718Z,22.37
2022-09-12T12:13:15.805Z,22.61
2022-09-12T12:15:53.222Z,22.58
2022-09-12T12:18:25.912Z,22.37
2022-09-12T12:20:54.487Z,22.43
2022-09-12T12:23:34.111Z,22.44
2022-09-12T12:26:02.517Z,22.02
2022-09-12T12:28:41.336Z,22.26
2022-09-12T12:31:09.988Z,22.00
2022-09-12T12:33:39.602Z,22.39
2022-09-12T12:36:09.576Z,22.51
2022-09-12T12:38:43.049Z,22.35
2022-09-12T12:41:18.936Z,22.53
2022-09-12T12:43:51.105Z,22.47
2022-09-12T12:46:20.551Z,22.56
2022-09-12T12:49:09.588Z,22.63
2022-09-12T12:51:56.596Z,22.55
2022-09-12T12:54:50.928Z,22.49
2022-09-12T12:57:19.746Z,22.25
2022-09-12T12:59:54.539Z,22.24
2022-09-12T13:02:31.155Z,22.16
2022-09-12T13:05:00.011Z,21.87
2022-09-12T13:07:37.960Z,21.71
2022-09-12T13:10:07.242Z,21.86
2022-09-12T13:12:46.432Z,21.58
2022-09-12T13:15:38.083Z,21.80
2022-09-12T13:18:12.321Z,22.03
2022-09-12T13:20:49.983Z,22.44
2022-09-12T13:23:25.784Z,22.63
2022-09-12T13:25:55.731Z,22.64
2022-09-12T13:28:22.620Z,22.46
2022-09-12T13:30:59.710Z,22.36
2022-09-12T13:33:33.817Z,22.18
2022-09-12T13:36:03.435Z,22.24
2022-09-12T13:38:38.283Z,22.30
2022-09-12T13:41:26.780Z,22.36
2022-09-12T13:43:53.585Z,22.27
2022-09-12T13:46:34.683Z,22.31
2022-09-12T13:49:11.662Z,22.16
2022-09-12T13:51:38.409Z,22.34
2022-09-12T13:54:06.020Z,22.23
2022-09-12T13:56:32.732Z,22.04
2022-09-12T13:59:02.495Z,21.81
2022-09-12T14:01:44.296Z,21.91
2022-09-12T14:04:37.040Z,22.08
2022-09-12T14:07:22.178Z,21.93
2022-09-12T14:09:57.304Z,21.86
2022-09-12T14:12:30.265Z,21.82
2022-09-12T14:14:57.500Z,21.94
2022-09-12T14:17:31.867Z,22.08
2022-09-12T14:20:05.401Z,22.04
2022-09-12T14:22:34.218Z,22.29
2022-09-12T14:25:02.022Z,22.40
2022-09-12T14:27:43.160Z,22.16
2022-09-12T14:30:31.986Z,22.04
2022-09-12T14:33:25.109Z,21.90
2022-09-12T14:36:12.095Z,21.68
2022-09-12T14:38:44.895Z,21.76
2022-09-12T14:41:20.873Z,21.80
2022-09-12T14:43:53.089Z,21.74
2022-09-12T14:46:41.497Z,21.71
2022-09-12T14:49:20.576Z,21.67
2022-09-12T14:51:57.113Z,21.68
2022-09-12T14:54:33.809Z,21.96
2022-09-12T14:57:06.202Z,21.74
2022-09-12T14:59:36.114Z,21.84
2022-09-12T15:02:21.251Z,21.41
2022-09-12T15:04:50.731Z,21.46
2022-09-12T15:07:38.528Z,21.51
2022-09-12T15:10:29.169Z,21.43
2022-09-12T15:13:16.711Z,21.26
2022-09-12T15:15:51.620Z,20.92
2022-09-12T15:18:19.727Z,20.67
2022-09-12T15:20:48.801Z,20.71
2022-09-12T15:23:31.165Z,20.62
2022-09-12T15:25:58.027Z,20.52
2022-09-12T15:28:26.826Z,20.47
2022-09-12T15:30:56.184Z,20.31
2022-09-12T15:33:25.117Z,20.43
2022-09-12T15:35:52.904Z,20.50
2022-09-12T15:38:23.141Z,20.36
2022-09-12T15:40:54.050Z,20.37
2022-09-12T15:43:22.573Z,20.51
2022-09-12T15:45:51.694Z,20.42
2022-09-12T15:48:19.350Z,20.44
2022-09-12T15:50:46.076Z,20.42
2022-09-12T15:53:16.173Z,20.36
2022-09-12T15:55:42.957Z,20.35
2022-09-12T15:58:09.865Z,20.29
2022-09-12T16:00:36.652Z,20.05
2022-09-12T16:03:03.900Z,20.29
2022-09-12T16:05:31.843Z,20.34
2022-09-12T16:07:58.505Z,20.18
2022-09-12T16:10:28.928Z,20.24
2022-09-12T16:12:55.684Z,20.12
2022-09-12T16:15:24.736Z,20.17
2022-09-12T16:17:51.869Z,20.06
2022-09-12T16:20:19.360Z,19.93
2022-09-12T16:22:46.061Z,20.09
2022-09-12T16:25:12.741Z,20.07
2022-09-12T16:27:39.876Z,19.87
2022-09-12T16:30:07.843Z,19.99
2022-09-12T16:32:34.522Z,19.79
2022-09-12T16:35:02.009Z,19.70
2022-09-12T16:37:28.967Z,19.77
2022-09-12T16:39:55.718Z,19.49
2022-09-12T16:42:23.066Z,19.48
2022-09-12T16:44:49.803Z,19.38
2022-09-12T16:47:16.576Z,19.08
2022-09-12T16:49:43.397Z,19.06
2022-09-12T16:52:10.926Z,18.76
2022-09-12T16:54:37.534Z,18.54
2022-09-12T16:57:05.375Z,18.66
2022-09-12T16:59:32.689Z,18.36
2022-09-12T17:01:59.333Z,18.30
2022-09-12T17:04:26.034Z,18.33
2022-09-12T17:06:52.715Z,18.22
2022-09-12T17:09:19.556Z,18.19
2022-09-12T17:11:50.367Z,18.28
2022-09-12T17:14:17.330Z,18.15
2022-09-12T17:16:51.442Z,18.19
2022-09-12T17:19:22.209Z,17.93
2022-09-12T17:21:50.098Z,17.93
2022-09-12T17:24:18.012Z,17.86
2022-09-12T17:26:45.767Z,17.90
2022-09-12T17:29:16.021Z,17.59
2022-09-12T17:31:43.879Z,17.46
2022-09-12T17:34:14.449Z,17.76
2022-09-12T17:36:44.475Z,17.67
2022-09-12T17:39:12.566Z,17.49
2022-09-12T17:41:41.358Z,17.36
2022-09-12T17:44:14.916Z,17.29
2022-09-12T17:46:42.367Z,17.17
2022-09-12T17:49:12.716Z,17.18
2022-09-12T17:51:40.348Z,17.00
2022-09-12T17:54:18.374Z,16.92
2022-09-12T17:56:51.902Z,16.98
2022-09-12T17:59:21.705Z,16.83
2022-09-12T18:02:06.937Z,16.77
2022-09-12T18:04:33.685Z,16.53
2022-09-12T18:07:00.573Z,16.49
2022-09-12T18:09:28.941Z,16.47
2022-09-12T18:11:55.586Z,16.47
2022-09-12T18:14:23.137Z,16.53
2022-09-12T18:16:49.887Z,16.49
2022-09-12T18:19:16.983Z,16.06
2022-09-12T18:21:44.217Z,15.92
2022-09-12T18:24:11.588Z,16.35
2022-09-12T18:26:39.141Z,16.37
2022-09-12T18:29:06.309Z,16.24
2022-09-12T18:31:33.018Z,16.11
2022-09-12T18:34:02.806Z,15.94
2022-09-12T18:36:30.063Z,16.16
2022-09-12T18:38:59.908Z,16.15
2022-09-12T18:41:26.613Z,16.24
2022-09-12T18:43:57.757Z,16.11
2022-09-12T18:46:25.222Z,16.06
2022-09-12T18:48:52.050Z,16.01
2022-09-12T18:51:21.249Z,15.88
2022-09-12T18:53:56.355Z,15.69
2022-09-12T18:56:28.779Z,15.86
2022-09-12T18:58:56.987Z,15.79
2022-09-12T19:01:29.611Z,15.81
2022-09-12T19:03:57.075Z,15.77
2022-09-12T19:06:32.115Z,15.95
2022-09-12T19:09:02.727Z,15.69
2022-09-12T19:11:31.909Z,15.87
2022-09-12T19:13:58.547Z,15.42
2022-09-12T19:16:27.653Z,15.66
2022-09-12T19:18:58.613Z,15.64
2022-09-12T19:21:27.516Z,15.56
2022-09-12T19:23:58.034Z,15.48
2022-09-12T19:26:25.190Z,15.47
2022-09-12T19:28:52.245Z,15.30
2022-09-12T19:31:20.237Z,15.42
2022-09-12T19:33:47.214Z,15.20
2022-09-12T19:36:34.033Z,15.33
2022-09-12T19:39:04.751Z,15.31
2022-09-12T19:41:31.576Z,15.11
2022-09-12T19:43:58.955Z,15.17
2022-09-12T19:46:26.607Z,15.09
2022-09-12T19:48:54.792Z,15.00
2022-09-12T19:51:22.301Z,14.68
2022-09-12T19:53:50.294Z,14.55
2022-09-12T19:56:17.704Z,14.70
2022-09-12T19:58:46.777Z,14.61
2022-09-12T20:01:29.990Z,14.51
2022-09-12T20:03:57.879Z,14.51
2022-09-12T20:06:31.250Z,14.29
2022-09-12T20:08:58.069Z,14.44
2022-09-12T20:11:25.822Z,14.51
2022-09-12T20:13:52.930Z,14.29
2022-09-12T20:16:22.869Z,14.40
2022-09-12T20:18:57.943Z,14.52
2022-09-12T20:21:31.764Z,14.58
2022-09-12T20:24:05.297Z,14.65
2022-09-12T20:26:37.253Z,14.71
2022-09-12T20:29:05.533Z,14.70
2022-09-12T20:31:36.660Z,14.62
2022-09-12T20:34:12.020Z,14.69
2022-09-12T20:36:43.918Z,14.74
2022-09-12T20:39:26.857Z,14.77
2022-09-12T20:41:53.899Z,14.71
2022-09-12T20:44:21.034Z,14.71
2022-09-12T20:46:48.983Z,14.83
2022-09-12T20:49:15.643Z,14.86
2022-09-12T20:51:42.303Z,14.67
2022-09-12T20:54:10.197Z,14.87
2022-09-12T20:56:37.657Z,14.89
2022-09-12T20:59:05.178Z,14.82
2022-09-12T21:01:32.259Z,14.73
2022-09-12T21:04:01.669Z,14.70
2022-09-12T21:06:28.523Z,14.59
2022-09-12T21:09:00.486Z,14.38
2022-09-12T21:11:29.413Z,14.64
2022-09-12T21:13:56.312Z,14.35
2022-09-12T21:16:23.669Z,14.52
2022-09-12T21:18:56.969Z,14.45
2022-09-12T21:21:27.273Z,14.30
2022-09-12T21:24:02.585Z,14.21
2022-09-12T21:26:29.858Z,14.32
2022-09-12T21:28:57.512Z,14.20
2022-09-12T21:31:27.440Z,14.31
2022-09-12T21:33:54.235Z,14.01
2022-09-12T21:36:21.014Z,14.12
2022-09-12T21:38:48.619Z,14.20
2022-09-12T21:41:17.188Z,14.16
2022-09-12T21:43:45.953Z,14.18
2022-09-12T21:46:13.831Z,14.11
2022-09-12T21:48:42.981Z,14.12
2022-09-12T21:51:09.621Z,13.96
2022-09-12T21:53:37.718Z,13.96
2022-09-12T21:56:07.277Z,13.95
2022-09-12T21:58:38.377Z,13.79
2022-09-12T22:01:08.618Z,13.69
2022-09-12T22:03:36.836Z,13.59
2022-09-12T22:06:06.660Z,13.53
2022-09-12T22:11:25.340Z,13.05
2022-09-12T22:13:51.932Z,13.15
2022-09-12T22:16:18.606Z,12.91
2022-09-12T22:18:50.584Z,12.72
2022-09-12T22:21:19.936Z,12.60
2022-09-12T22:24:05.027Z,12.07
2022-09-12T22:26:35.055Z,11.82
2022-09-12T22:29:02.060Z,11.54
2022-09-12T22:31:28.793Z,11.71
2022-09-12T22:33:59.389Z,11.84
2022-09-12T22:36:30.500Z,11.46
2022-09-12T22:38:58.479Z,11.33
2022-09-12T22:41:25.271Z,11.07
2022-09-12T22:43:51.910Z,11.04
2022-09-12T22:46:18.575Z,10.79
2022-09-12T22:48:45.606Z,10.84
2022-09-12T22:51:12.332Z,10.64
2022-09-12T22:53:39.077Z,10.49
2022-09-12T22:56:06.570Z,10.39
2022-09-12T22:58:35.602Z,10.98
2022-09-12T23:01:03.534Z,11.40
2022-09-12T23:03:30.588Z,11.74
2022-09-12T23:05:57.188Z,11.93
2022-09-12T23:08:23.895Z,11.93
2022-09-12T23:10:50.782Z,11.99
2022-09-12T23:13:17.736Z,12.02
2022-09-12T23:15:45.446Z,11.77
2022-09-12T23:18:12.052Z,12.00
2022-09-12T23:20:38.665Z,11.84
2022-09-12T23:23:05.300Z,11.86
2022-09-12T23:25:31.995Z,11.77
2022-09-12T23:27:58.653Z,11.86
2022-09-12T23:30:25.259Z,11.73
2022-09-12T23:32:51.915Z,11.94
2022-09-12T23:35:19.699Z,12.00
2022-09-12T23:37:47.166Z,12.18
2022-09-12T23:40:16.234Z,12.11
2022-09-12T23:42:42.897Z,12.20
2022-09-12T23:45:10.362Z,12.04
2022-09-12T23:47:37.001Z,12.13
2022-09-12T23:50:04.149Z,12.03
2022-09-12T23:52:30.909Z,12.16
2022-09-12T23:54:57.533Z,11.81
2022-09-12T23:57:24.140Z,12.02
2022-09-12T23:59:50.735Z,12.00
